This is the latest recevied weather packets stored in our database for station/object M0XDC. If no packets are shown the sender has not sent any weather packets the latest 10 day(s).
| Time | Temp. | Humidity | Pressure | Rain* | Wind** | Luminosity | Snow |
|---|---|---|---|---|---|---|---|
| 1787834923 | 22.22° C | 79% | 1006.7 hPa | 0 mm | - | - | - |
| 1787833123 | 21.67° C | 82% | 1006.7 hPa | 0 mm | - | - | - |
| 1787831323 | 21.67° C | 79% | 1006.7 hPa | 0 mm | - | - | - |
| 1787829523 | 20° C | 90% | 1006.9 hPa | 0 mm | - | - | - |
| 1787827723 | 19.44° C | 92% | 1006.5 hPa | 0.25 mm | - | - | - |
| 1787825923 | 19.44° C | 95% | 1006.4 hPa | 0.51 mm | - | - | - |
| 1787824123 | 19.44° C | 95% | 1006.8 hPa | 2.03 mm | - | - | - |
| 1787822323 | 18.33° C | 96% | 1006.9 hPa | 2.29 mm | - | - | - |
| 1787820523 | 18.89° C | 95% | 1007.4 hPa | 6.6 mm | - | - | - |
| 1787818723 | 18.89° C | 95% | 1007.3 hPa | 6.6 mm | - | - | - |
| 1787816923 | 18.89° C | 94% | 1007.1 hPa | 0.51 mm | - | - | - |
| 1787815123 | 19.44° C | 92% | 1006.5 hPa | 0 mm | - | - | - |
| 1787813323 | 19.44° C | 91% | 1006.6 hPa | 0 mm | - | - | - |
| 1787811523 | 19.44° C | 91% | 1006.5 hPa | 0 mm | - | - | - |
| 1787809723 | 19.44° C | 90% | 1006.6 hPa | 0 mm | - | - | - |
| 1787807923 | 19.44° C | 90% | 1006.8 hPa | 0 mm | - | - | - |
| 1787806123 | 19.44° C | 90% | 1007.3 hPa | 0 mm | - | - | - |
| 1787804323 | 19.44° C | 89% | 1007.5 hPa | 0 mm | - | - | - |
| 1787802523 | 19.44° C | 88% | 1007.1 hPa | 0 mm | - | - | - |
| 1787800723 | 18.89° C | 88% | 1007.4 hPa | 0 mm | - | - | - |
| 1787798923 | 18.89° C | 87% | 1007.7 hPa | 0 mm | - | - | - |
| 1787797123 | 18.33° C | 87% | 1008.3 hPa | 0 mm | - | - | - |
| 1787795323 | 18.33° C | 87% | 1008.5 hPa | 0 mm | - | - | - |
| 1787793523 | 18.33° C | 86% | 1008.4 hPa | 0 mm | - | - | - |
| 1787791723 | 18.33° C | 86% | 1008.8 hPa | 0 mm | - | - | - |
* Rain latest hour (hover to see other rain measurements)
** Current wind speed in m/s (hover to see current wind gust speed)